Time;durP1;ratioP1;P1;durP2;ratioP2;P2;SDS_P1;SDS_P2;PMS_P1;PMS_P2;Temp;Humidity;BMP_temperature;BMP_pressure;BME280_temperature;BME280_humidity;BME280_pressure;Samples;Min_cycle;Max_cycle;Signal;HPM_P1;HPM_P2
2021/08/24 00:00:29;;;;;;;;;;;;;;;20.03;48.21;101051.75;456473;114;922678;-77
2021/08/24 00:01:34;;;;;;;;;;;;;;;20.04;48.38;101050.66;455347;115;922671;-77
2021/08/24 00:02:38;;;;;;;;;;;;;;;20.04;48.45;101054.27;455281;114;922726;-76
2021/08/24 00:03:41;;;;;;;;;;;;;;;20.03;48.49;101046.22;454296;114;922703;-77
2021/08/24 00:04:45;;;;;;;;;;;;;;;20.01;48.43;101052.05;453963;114;922650;-77
2021/08/24 00:05:48;;;;;;;;;;;;;;;19.98;48.51;101056.16;455186;115;922658;-77
2021/08/24 00:06:51;;;;;;;;;;;;;;;19.94;48.38;101052.27;455601;114;922692;-76
2021/08/24 00:07:59;;;;;;;;;;;;;;;19.92;48.46;101048.08;455508;114;922759;-75
2021/08/24 00:09:01;;;;;;;;;;;;;;;19.89;48.34;101055.00;454764;115;922930;-79
2021/08/24 00:10:06;;;;;;;;;;;;;;;19.86;48.63;101055.51;455568;114;922695;-76
2021/08/24 00:11:10;;;;;;;;;;;;;;;19.86;48.93;101049.14;456604;114;921507;-75
2021/08/24 00:12:13;;;;;;;;;;;;;;;19.84;49.03;101049.42;455872;114;921533;-77
2021/08/24 00:13:17;;;;;;;;;;;;;;;19.84;49.13;101056.89;455727;117;921597;-76
2021/08/24 00:14:20;;;;;;;;;;;;;;;19.84;49.25;101043.89;455643;115;921516;-76
2021/08/24 00:15:24;;;;;;;;;;;;;;;19.83;49.32;101050.52;455424;114;921493;-76
2021/08/24 00:16:27;;;;;;;;;;;;;;;19.81;49.40;101047.17;455948;115;921624;-76
2021/08/24 00:17:30;;;;;;;;;;;;;;;19.80;49.18;101048.27;455858;117;921423;-76
2021/08/24 00:18:33;;;;;;;;;;;;;;;19.79;49.06;101046.59;454762;115;921415;-75
2021/08/24 00:19:36;;;;;;;;;;;;;;;19.77;49.00;101045.20;454433;112;921641;-77
2021/08/24 00:20:42;;;;;;;;;;;;;;;19.75;49.14;101044.62;455303;114;923061;-77
2021/08/24 00:21:45;;;;;;;;;;;;;;;19.75;49.25;101052.92;455536;117;922685;-77
2021/08/24 00:22:48;;;;;;;;;;;;;;;19.74;49.14;101043.78;455131;114;923017;-77
2021/08/24 00:23:52;;;;;;;;;;;;;;;19.75;49.19;101055.69;454686;114;923093;-75
2021/08/24 00:24:55;;;;;;;;;;;;;;;19.74;49.29;101051.25;455595;114;923153;-77
2021/08/24 00:25:59;;;;;;;;;;;;;;;19.73;49.22;101049.60;450251;118;922745;-77
2021/08/24 00:27:02;;;;;;;;;;;;;;;19.72;49.25;101045.16;449718;115;923238;-75
2021/08/24 00:28:06;;;;;;;;;;;;;;;19.74;49.21;101045.71;449172;116;922726;-75
2021/08/24 00:29:11;;;;;;;;;;;;;;;19.72;49.30;101051.53;449368;115;922664;-76
2021/08/24 00:30:14;;;;;;;;;;;;;;;19.71;49.53;101052.62;455418;115;922473;-76
2021/08/24 00:31:17;;;;;;;;;;;;;;;19.70;49.62;101048.19;455248;115;922735;-75
2021/08/24 00:32:20;;;;;;;;;;;;;;;19.67;49.73;101048.73;455266;114;922724;-75
2021/08/24 00:33:25;;;;;;;;;;;;;;;19.65;49.67;101048.14;455262;114;922682;-74
2021/08/24 00:34:28;;;;;;;;;;;;;;;19.63;49.48;101043.98;454706;115;921618;-75
2021/08/24 00:35:31;;;;;;;;;;;;;;;19.61;49.53;101046.17;455210;114;922716;-76
2021/08/24 00:36:35;;;;;;;;;;;;;;;19.61;49.43;101046.17;455487;114;924291;-76
2021/08/24 00:37:38;;;;;;;;;;;;;;;19.59;49.32;101040.89;454932;114;922653;-77
2021/08/24 00:38:42;;;;;;;;;;;;;;;19.61;49.28;101046.17;454799;115;922674;-76
2021/08/24 00:39:45;;;;;;;;;;;;;;;19.59;49.16;101051.95;446394;116;923185;-77
2021/08/24 00:40:52;;;;;;;;;;;;;;;19.58;49.15;101040.05;456317;114;922699;-77
2021/08/24 00:41:56;;;;;;;;;;;;;;;19.58;49.23;101047.52;457380;114;923128;-77
2021/08/24 00:42:59;;;;;;;;;;;;;;;19.59;49.24;101054.73;456769;114;924954;-76
2021/08/24 00:44:03;;;;;;;;;;;;;;;19.58;49.13;101045.59;455415;114;922714;-76
2021/08/24 00:45:08;;;;;;;;;;;;;;;19.58;49.05;101048.36;454973;113;922709;-77
2021/08/24 00:46:30;;;;;;;;;;;;;;;19.60;49.10;101048.10;455478;114;921528;-77
2021/08/24 00:47:34;;;;;;;;;;;;;;;19.61;49.25;101046.17;454433;115;922619;-76
2021/08/24 00:48:39;;;;;;;;;;;;;;;19.61;49.43;101048.94;454149;114;923113;-77
2021/08/24 00:49:44;;;;;;;;;;;;;;;19.60;49.64;101048.10;455662;114;921623;-77
2021/08/24 00:50:48;;;;;;;;;;;;;;;19.58;49.80;101044.75;454877;115;922696;-76
2021/08/24 00:51:53;;;;;;;;;;;;;;;19.57;49.81;101049.45;455678;115;922642;-75
2021/08/24 00:53:04;;;;;;;;;;;;;;;19.57;49.82;101049.45;454196;114;923200;-78
2021/08/24 00:54:09;;;;;;;;;;;;;;;19.56;49.70;101039.50;455436;114;923468;-76
2021/08/24 00:55:13;;;;;;;;;;;;;;;19.56;49.70;101050.57;447819;116;921584;-76
2021/08/24 00:56:16;;;;;;;;;;;;;;;19.57;49.67;101040.34;448695;116;922027;-76
2021/08/24 00:57:21;;;;;;;;;;;;;;;19.56;49.67;101039.50;455003;115;921493;-76
2021/08/24 00:58:24;;;;;;;;;;;;;;;19.57;49.76;101040.34;455622;114;922021;-76
2021/08/24 00:59:28;;;;;;;;;;;;;;;19.56;49.85;101038.67;456024;115;921411;-76
2021/08/24 01:00:32;;;;;;;;;;;;;;;19.55;50.01;101048.06;455728;114;921401;-75
2021/08/24 01:01:36;;;;;;;;;;;;;;;19.54;50.22;101041.69;455102;114;921461;-76
2021/08/24 01:02:39;;;;;;;;;;;;;;;19.54;50.43;101043.61;454757;114;921483;-76
2021/08/24 01:03:45;;;;;;;;;;;;;;;19.52;50.70;101049.41;454329;114;921653;-77
2021/08/24 01:04:49;;;;;;;;;;;;;;;19.52;50.95;101049.41;454624;114;921848;-76
2021/08/24 01:05:54;;;;;;;;;;;;;;;19.50;51.15;101046.09;454286;115;921501;-76
2021/08/24 01:07:02;;;;;;;;;;;;;;;19.49;51.48;101041.64;456342;114;921422;-77
2021/08/24 01:08:10;;;;;;;;;;;;;;;19.48;51.74;101047.43;455624;114;921484;-75
2021/08/24 01:09:33;;;;;;;;;;;;;;;19.45;51.81;101051.57;455540;115;921452;-76
2021/08/24 01:10:44;;;;;;;;;;;;;;;19.42;52.03;101040.98;455741;114;921680;-76
2021/08/24 01:11:49;;;;;;;;;;;;;;;19.41;52.17;101050.37;455343;115;921506;-76
2021/08/24 01:12:55;;;;;;;;;;;;;;;19.42;52.07;101048.44;455187;115;922633;-76
2021/08/24 01:14:16;;;;;;;;;;;;;;;19.43;51.96;101041.82;455093;115;922660;-75
2021/08/24 01:15:31;;;;;;;;;;;;;;;19.43;51.83;101039.05;454505;113;923183;-76
2021/08/24 01:16:42;;;;;;;;;;;;;;;19.43;51.64;101031.59;448029;117;921598;-76
2021/08/24 01:17:51;;;;;;;;;;;;;;;19.44;51.92;101043.49;454458;115;921579;-74
2021/08/24 01:19:05;;;;;;;;;;;;;;;19.40;52.18;101034.90;455476;114;923527;-75
2021/08/24 01:20:19;;;;;;;;;;;;;;;19.39;52.37;101026.86;453872;115;922644;-75
2021/08/24 01:21:33;;;;;;;;;;;;;;;19.36;52.46;101028.20;455899;114;922990;-77
2021/08/24 01:22:48;;;;;;;;;;;;;;;19.34;52.55;101037.88;454121;114;923162;-76
2021/08/24 01:23:59;;;;;;;;;;;;;;;19.33;52.65;101041.73;455117;114;922619;-75
2021/08/24 01:25:04;;;;;;;;;;;;;;;19.32;52.75;101043.66;454533;115;922811;-77
2021/08/24 01:26:09;;;;;;;;;;;;;;;19.32;52.88;101043.66;455240;115;923086;-75
2021/08/24 01:27:14;;;;;;;;;;;;;;;19.33;52.90;101048.09;454584;114;923169;-75
2021/08/24 01:28:22;;;;;;;;;;;;;;;19.32;52.94;101043.66;436673;118;921430;-75
2021/08/24 01:29:39;;;;;;;;;;;;;;;19.31;53.07;101047.51;435331;119;923196;-75
2021/08/24 01:30:44;;;;;;;;;;;;;;;19.30;53.24;101045.84;454439;114;922622;-76
2021/08/24 01:32:07;;;;;;;;;;;;;;;19.28;53.24;101044.45;454992;115;923494;-76
2021/08/24 01:33:20;;;;;;;;;;;;;;;19.27;53.22;101043.61;454787;115;922533;-76
2021/08/24 01:34:41;;;;;;;;;;;;;;;19.28;52.92;101039.75;454510;115;922737;-76
2021/08/24 01:35:58;;;;;;;;;;;;;;;19.28;52.70;101042.52;446097;116;923023;-76
2021/08/24 01:37:12;;;;;;;;;;;;;;;19.30;52.52;101048.59;434354;121;922696;-77
2021/08/24 01:38:20;;;;;;;;;;;;;;;19.31;52.28;101047.51;438129;118;922695;-75
2021/08/24 01:39:25;;;;;;;;;;;;;;;19.29;52.45;101041.42;455659;114;922666;-75
2021/08/24 01:40:30;;;;;;;;;;;;;;;19.26;52.75;101041.93;455965;113;923215;-75
2021/08/24 01:41:54;;;;;;;;;;;;;;;19.23;53.06;101042.47;454254;115;921498;-74
2021/08/24 01:42:58;;;;;;;;;;;;;;;19.20;53.31;101045.73;454416;114;922535;-76
2021/08/24 01:44:09;;;;;;;;;;;;;;;19.16;53.57;101042.67;455596;114;922654;-75
2021/08/24 01:45:20;;;;;;;;;;;;;;;19.13;53.30;101042.36;454885;115;922724;-75
2021/08/24 01:46:44;;;;;;;;;;;;;;;19.10;53.24;101045.62;455324;114;922641;-74
2021/08/24 01:47:49;;;;;;;;;;;;;;;19.07;53.02;101043.41;454851;114;922722;-76
2021/08/24 01:48:54;;;;;;;;;;;;;;;19.05;53.00;101053.87;455587;115;921467;-76
2021/08/24 01:50:02;;;;;;;;;;;;;;;19.03;52.95;101051.36;455374;115;921513;-76
2021/08/24 01:51:07;;;;;;;;;;;;;;;19.02;52.99;101055.21;456548;113;921588;-77
2021/08/24 01:52:12;;;;;;;;;;;;;;;19.02;53.03;101051.64;456551;114;921693;-76
2021/08/24 01:53:17;;;;;;;;;;;;;;;19.01;53.01;101053.56;455448;115;921896;-76
2021/08/24 01:54:22;;;;;;;;;;;;;;;19.01;53.21;101052.73;455142;115;921456;-76
2021/08/24 01:55:30;;;;;;;;;;;;;;;18.98;53.34;101056.83;455662;115;921509;-76
2021/08/24 01:56:37;;;;;;;;;;;;;;;18.97;53.49;101062.61;455977;115;921490;-76
2021/08/24 01:57:58;;;;;;;;;;;;;;;18.95;53.46;101065.66;455427;115;921599;-76
2021/08/24 01:59:03;;;;;;;;;;;;;;;18.92;53.62;101074.44;455842;115;921468;-76
2021/08/24 02:00:08;;;;;;;;;;;;;;;18.92;53.62;101073.60;454893;115;921576;-75
2021/08/24 02:01:13;;;;;;;;;;;;;;;18.89;53.65;101077.73;455780;115;921457;-75
2021/08/24 02:02:19;;;;;;;;;;;;;;;18.88;53.77;101080.75;455231;115;922580;-76
2021/08/24 02:03:31;;;;;;;;;;;;;;;18.87;53.93;101077.14;458733;113;921567;-77
2021/08/24 02:04:37;;;;;;;;;;;;;;;18.87;53.97;101076.30;460785;113;922649;-76
2021/08/24 02:05:47;;;;;;;;;;;;;;;18.84;53.89;101074.91;459637;114;921492;-76
2021/08/24 02:06:51;;;;;;;;;;;;;;;18.83;53.98;101073.23;459813;114;921444;-76
2021/08/24 02:07:57;;;;;;;;;;;;;;;18.83;54.05;101077.92;459808;114;922718;-76
2021/08/24 02:09:03;;;;;;;;;;;;;;;18.82;54.20;101081.77;459866;114;922641;-75
2021/08/24 02:10:11;;;;;;;;;;;;;;;18.81;54.41;101075.41;459684;111;922694;-76
2021/08/24 02:11:14;;;;;;;;;;;;;;;18.81;54.50;101075.41;459536;114;922405;-76
2021/08/24 02:12:19;;;;;;;;;;;;;;;18.82;54.59;101079.01;460006;113;923996;-76
2021/08/24 02:13:24;;;;;;;;;;;;;;;18.81;54.65;101080.94;459955;114;922623;-77
2021/08/24 02:14:28;;;;;;;;;;;;;;;18.80;54.73;101070.16;459477;113;924410;-76
2021/08/24 02:15:36;;;;;;;;;;;;;;;18.80;54.86;101075.69;459475;114;922640;-76
2021/08/24 02:16:40;;;;;;;;;;;;;;;18.82;54.95;101076.25;458628;114;922635;-76
2021/08/24 02:17:47;;;;;;;;;;;;;;;18.83;55.00;101080.69;458566;114;923492;-74
2021/08/24 02:18:52;;;;;;;;;;;;;;;18.82;55.11;101079.84;460375;114;923298;-77
2021/08/24 02:20:00;;;;;;;;;;;;;;;18.82;55.29;101079.84;459262;114;922869;-76
2021/08/24 02:21:09;;;;;;;;;;;;;;;18.81;55.34;101074.57;442657;118;922638;-76
2021/08/24 02:22:16;;;;;;;;;;;;;;;18.80;55.41;101070.97;447762;117;923154;-76
2021/08/24 02:23:23;;;;;;;;;;;;;;;18.80;55.48;101070.97;443557;118;922741;-74
2021/08/24 02:24:28;;;;;;;;;;;;;;;18.81;55.43;101071.81;451094;116;924861;-76
2021/08/24 02:25:33;;;;;;;;;;;;;;;18.81;55.28;101067.12;447535;116;923389;-75
2021/08/24 02:26:38;;;;;;;;;;;;;;;18.83;55.22;101073.23;447811;117;922685;-77
2021/08/24 02:27:46;;;;;;;;;;;;;;;18.84;55.06;101068.55;447916;117;922740;-76
2021/08/24 02:28:54;;;;;;;;;;;;;;;18.85;55.04;101064.70;450195;116;922703;-76
2021/08/24 02:29:58;;;;;;;;;;;;;;;18.86;55.02;101066.34;447191;117;923246;-75
2021/08/24 02:31:03;;;;;;;;;;;;;;;18.88;54.99;101064.17;442388;118;922637;-74
2021/08/24 02:32:08;;;;;;;;;;;;;;;18.88;55.09;101062.24;446812;117;922374;-76
2021/08/24 02:33:13;;;;;;;;;;;;;;;18.88;55.27;101070.53;442918;118;922688;-75
2021/08/24 02:34:24;;;;;;;;;;;;;;;18.88;55.57;101065.00;451593;116;922707;-74
2021/08/24 02:35:29;;;;;;;;;;;;;;;18.87;55.76;101065.25;447416;117;923154;-75
2021/08/24 02:36:34;;;;;;;;;;;;;;;18.85;55.81;101064.70;447951;117;921557;-75
2021/08/24 02:37:49;;;;;;;;;;;;;;;18.81;55.82;101069.88;447975;117;922647;-76
2021/08/24 02:38:55;;;;;;;;;;;;;;;18.79;55.97;101063.80;448044;117;922651;-76
2021/08/24 02:40:03;;;;;;;;;;;;;;;18.77;56.15;101067.90;447333;117;922734;-77
2021/08/24 02:41:08;;;;;;;;;;;;;;;18.76;56.15;101067.06;447738;117;924225;-76
2021/08/24 02:42:13;;;;;;;;;;;;;;;18.75;56.18;101065.38;447267;117;921475;-76
2021/08/24 02:43:21;;;;;;;;;;;;;;;18.75;56.27;101073.67;451325;116;921367;-76
2021/08/24 02:44:29;;;;;;;;;;;;;;;18.73;56.40;101067.59;452499;116;921574;-76
2021/08/24 02:45:34;;;;;;;;;;;;;;;18.70;56.37;101074.45;452425;114;921642;-75
2021/08/24 02:46:40;;;;;;;;;;;;;;;18.66;56.23;101073.30;452477;116;921521;-76
2021/08/24 02:47:44;;;;;;;;;;;;;;;18.64;56.36;101077.39;452967;116;921516;-76
2021/08/24 02:48:49;;;;;;;;;;;;;;;18.62;56.39;101072.14;453012;116;921502;-76
2021/08/24 02:49:53;;;;;;;;;;;;;;;18.63;56.46;101076.59;453198;116;921423;-74
2021/08/24 02:50:57;;;;;;;;;;;;;;;18.63;56.49;101076.59;453741;115;921606;-75
2021/08/24 02:52:02;;;;;;;;;;;;;;;18.63;56.49;101082.11;454959;115;921532;-75
2021/08/24 02:53:05;;;;;;;;;;;;;;;18.60;56.44;101081.77;455051;115;921558;-77
2021/08/24 02:54:16;;;;;;;;;;;;;;;18.57;56.47;101074.84;454631;115;921547;-75
2021/08/24 02:55:19;;;;;;;;;;;;;;;18.57;56.67;101085.89;453054;114;923293;-76
2021/08/24 02:56:23;;;;;;;;;;;;;;;18.57;56.84;101085.05;451775;115;922651;-76
2021/08/24 02:57:26;;;;;;;;;;;;;;;18.59;56.85;101086.45;452267;115;922552;-75
2021/08/24 02:58:30;;;;;;;;;;;;;;;18.60;56.91;101085.36;453183;115;922781;-76
2021/08/24 02:59:34;;;;;;;;;;;;;;;18.61;56.93;101081.52;457711;114;922740;-76
2021/08/24 03:00:38;;;;;;;;;;;;;;;18.61;56.77;101075.16;457424;114;921887;-75
2021/08/24 03:01:41;;;;;;;;;;;;;;;18.61;56.70;101080.67;456304;114;922105;-76
2021/08/24 03:02:45;;;;;;;;;;;;;;;18.61;56.64;101081.52;458461;114;922677;-76
2021/08/24 03:03:49;;;;;;;;;;;;;;;18.60;56.67;101079.00;458882;116;922587;-76
2021/08/24 03:04:52;;;;;;;;;;;;;;;18.58;56.75;101081.20;458459;114;922668;-77
2021/08/24 03:05:56;;;;;;;;;;;;;;;18.58;56.85;101076.48;458375;114;922689;-76
2021/08/24 03:07:02;;;;;;;;;;;;;;;18.57;56.87;101076.77;458511;114;922705;-76
2021/08/24 03:08:05;;;;;;;;;;;;;;;18.56;56.88;101077.85;459345;114;922544;-76
2021/08/24 03:09:09;;;;;;;;;;;;;;;18.54;56.77;101078.09;458261;114;922699;-75
2021/08/24 03:10:14;;;;;;;;;;;;;;;18.53;56.80;101081.07;458930;114;922614;-76
2021/08/24 03:11:19;;;;;;;;;;;;;;;18.52;56.83;101074.74;459151;114;921500;-77
2021/08/24 03:12:42;;;;;;;;;;;;;;;18.52;57.00;101077.50;458801;114;921505;-77
2021/08/24 03:13:56;;;;;;;;;;;;;;;18.53;56.93;101075.55;458487;114;923133;-77
2021/08/24 03:15:01;;;;;;;;;;;;;;;18.52;56.99;101079.42;457917;114;922721;-76
2021/08/24 03:16:06;;;;;;;;;;;;;;;18.52;57.09;101082.19;458429;114;921431;-77
2021/08/24 03:17:15;;;;;;;;;;;;;;;18.52;57.07;101080.27;458458;114;923170;-77
2021/08/24 03:18:23;;;;;;;;;;;;;;;18.50;57.08;101082.44;458919;114;924061;-76
2021/08/24 03:19:29;;;;;;;;;;;;;;;18.50;57.20;101085.20;458719;114;922673;-75
2021/08/24 03:20:34;;;;;;;;;;;;;;;18.50;57.32;101084.36;458766;111;922687;-76
2021/08/24 03:21:38;;;;;;;;;;;;;;;18.51;57.43;101091.56;458551;114;922678;-78
2021/08/24 03:22:42;;;;;;;;;;;;;;;18.50;57.53;101093.48;458824;114;922761;-75
2021/08/24 03:23:46;;;;;;;;;;;;;;;18.52;57.63;101091.31;458690;114;922678;-78
2021/08/24 03:24:50;;;;;;;;;;;;;;;18.53;57.74;101092.12;458715;114;922644;-76
2021/08/24 03:25:53;;;;;;;;;;;;;;;18.54;57.79;101085.52;454034;114;922677;-77
2021/08/24 03:26:57;;;;;;;;;;;;;;;18.55;57.87;101089.98;449062;116;923139;-77
2021/08/24 03:28:00;;;;;;;;;;;;;;;18.56;57.92;101089.73;436626;119;923401;-76
2021/08/24 03:29:05;;;;;;;;;;;;;;;18.56;58.06;101081.45;450535;116;922691;-78
2021/08/24 03:30:11;;;;;;;;;;;;;;;18.57;58.08;101088.66;457458;114;922371;-75
2021/08/24 03:31:15;;;;;;;;;;;;;;;18.57;58.16;101093.34;458076;114;923758;-76
2021/08/24 03:32:19;;;;;;;;;;;;;;;18.55;58.24;101088.06;459234;114;921495;-75
2021/08/24 03:33:22;;;;;;;;;;;;;;;18.54;58.24;101094.66;459145;114;921457;-77
2021/08/24 03:34:27;;;;;;;;;;;;;;;18.55;58.38;101087.22;450575;116;921403;-77
2021/08/24 03:35:30;;;;;;;;;;;;;;;18.55;58.48;101090.82;454359;115;921642;-76
2021/08/24 03:36:34;;;;;;;;;;;;;;;18.56;58.55;101086.97;454783;115;921507;-76
2021/08/24 03:37:37;;;;;;;;;;;;;;;18.58;58.56;101087.53;455126;115;921485;-77
2021/08/24 03:38:41;;;;;;;;;;;;;;;18.60;58.50;101090.89;454559;115;921604;-76
2021/08/24 03:39:45;;;;;;;;;;;;;;;18.64;58.42;101093.96;454419;115;921496;-77
2021/08/24 03:40:48;;;;;;;;;;;;;;;18.65;58.30;101090.95;440701;118;921329;-77
2021/08/24 03:41:51;;;;;;;;;;;;;;;18.67;58.19;101094.31;459525;114;921437;-76
2021/08/24 03:42:55;;;;;;;;;;;;;;;18.70;58.12;101085.49;449422;116;922728;-76
2021/08/24 03:43:59;;;;;;;;;;;;;;;18.72;58.02;101094.37;449781;116;922720;-76
2021/08/24 03:45:02;;;;;;;;;;;;;;;18.74;58.08;101091.36;457235;114;923059;-74
2021/08/24 03:46:05;;;;;;;;;;;;;;;18.74;58.07;101081.12;458334;114;923752;-75
2021/08/24 03:47:10;;;;;;;;;;;;;;;18.75;58.24;101090.24;459467;114;922692;-76
2021/08/24 03:48:14;;;;;;;;;;;;;;;18.77;58.18;101092.76;458089;114;922700;-74
2021/08/24 03:49:17;;;;;;;;;;;;;;;18.78;58.05;101098.03;459433;114;922697;-78
2021/08/24 03:50:20;;;;;;;;;;;;;;;18.78;58.03;101103.56;458991;114;922623;-76
2021/08/24 03:51:25;;;;;;;;;;;;;;;18.79;58.06;101096.95;459633;113;921641;-75
2021/08/24 03:52:28;;;;;;;;;;;;;;;18.79;58.11;101098.88;461992;113;922665;-76
2021/08/24 03:53:33;;;;;;;;;;;;;;;18.79;58.24;101099.72;461515;113;922616;-76
2021/08/24 03:54:36;;;;;;;;;;;;;;;18.79;58.44;101094.19;452849;115;922704;-75
2021/08/24 03:55:40;;;;;;;;;;;;;;;18.80;58.66;101095.03;461730;113;922653;-76
2021/08/24 03:56:43;;;;;;;;;;;;;;;18.80;58.81;101095.83;461062;113;922507;-77
2021/08/24 03:57:46;;;;;;;;;;;;;;;18.81;58.86;101097.51;459252;114;922685;-77
2021/08/24 03:58:50;;;;;;;;;;;;;;;18.82;58.66;101096.42;459144;114;922642;-76
2021/08/24 04:00:05;;;;;;;;;;;;;;;18.83;58.44;101100.02;458553;114;922709;-76
2021/08/24 04:01:14;;;;;;;;;;;;;;;18.84;58.35;101090.66;446830;117;922974;-75
2021/08/24 04:02:18;;;;;;;;;;;;;;;18.84;58.20;101094.25;447151;116;922712;-74
2021/08/24 04:03:22;;;;;;;;;;;;;;;18.85;58.08;101097.85;447538;116;922635;-76
2021/08/24 04:04:25;;;;;;;;;;;;;;;18.85;57.96;101103.38;456725;113;922550;-79
2021/08/24 04:05:29;;;;;;;;;;;;;;;18.86;57.68;101110.55;462334;113;922241;-74
2021/08/24 04:06:32;;;;;;;;;;;;;;;18.87;57.51;101107.54;460967;113;922609;-75
2021/08/24 04:07:35;;;;;;;;;;;;;;;18.87;57.56;101104.78;458373;113;922724;-77
2021/08/24 04:08:38;;;;;;;;;;;;;;;18.89;57.57;101102.61;461282;113;922700;-75
2021/08/24 04:09:42;;;;;;;;;;;;;;;18.90;57.62;101103.44;463348;113;922659;-76
2021/08/24 04:10:45;;;;;;;;;;;;;;;18.89;57.80;101108.13;464869;113;922750;-75
2021/08/24 04:11:48;;;;;;;;;;;;;;;18.88;57.94;101097.33;464646;113;922671;-76
2021/08/24 04:12:51;;;;;;;;;;;;;;;18.87;57.89;101102.02;462928;113;922698;-76
2021/08/24 04:13:55;;;;;;;;;;;;;;;18.86;57.96;101103.10;461711;113;922979;-76
2021/08/24 04:14:58;;;;;;;;;;;;;;;18.85;57.90;101093.17;462233;113;922753;-76
2021/08/24 04:16:07;;;;;;;;;;;;;;;18.85;57.78;101095.09;461778;113;922324;-76
2021/08/24 04:17:10;;;;;;;;;;;;;;;18.85;57.75;101090.41;462073;113;922731;-75
2021/08/24 04:18:15;;;;;;;;;;;;;;;18.87;57.85;101095.65;462857;113;922701;-76
2021/08/24 04:19:18;;;;;;;;;;;;;;;18.86;58.08;101093.97;461770;113;923190;-75
2021/08/24 04:20:25;;;;;;;;;;;;;;;18.85;58.36;101092.33;461009;113;921448;-75
2021/08/24 04:21:29;;;;;;;;;;;;;;;18.83;58.51;101089.81;461346;113;922656;-76
2021/08/24 04:22:33;;;;;;;;;;;;;;;18.84;58.59;101093.41;461480;113;922639;-76
2021/08/24 04:23:37;;;;;;;;;;;;;;;18.84;58.63;101093.41;461339;113;921722;-76
2021/08/24 04:24:40;;;;;;;;;;;;;;;18.83;58.69;101092.58;462398;113;922446;-76
2021/08/24 04:25:43;;;;;;;;;;;;;;;18.83;58.75;101089.81;460823;113;921900;-76
2021/08/24 04:26:46;;;;;;;;;;;;;;;18.83;58.65;101089.81;460226;113;921493;-76
2021/08/24 04:27:49;;;;;;;;;;;;;;;18.83;58.49;101094.50;459506;113;921391;-77
2021/08/24 04:28:54;;;;;;;;;;;;;;;18.81;58.48;101091.98;459392;113;921507;-78
2021/08/24 04:29:57;;;;;;;;;;;;;;;18.81;58.34;101091.98;459619;113;921654;-76
2021/08/24 04:31:02;;;;;;;;;;;;;;;18.82;58.20;101092.83;461469;113;921542;-77
2021/08/24 04:32:06;;;;;;;;;;;;;;;18.82;58.20;101090.89;460966;113;921470;-76
2021/08/24 04:33:09;;;;;;;;;;;;;;;18.83;58.36;101088.97;463491;113;921360;-77
2021/08/24 04:34:12;;;;;;;;;;;;;;;18.81;58.24;101086.45;456921;114;921362;-78
2021/08/24 04:35:18;;;;;;;;;;;;;;;18.82;58.33;101092.83;458754;114;921660;-76
2021/08/24 04:36:22;;;;;;;;;;;;;;;18.82;58.35;101088.14;457251;114;921344;-77
2021/08/24 04:37:25;;;;;;;;;;;;;;;18.82;58.22;101084.53;456645;114;921571;-77
2021/08/24 04:38:28;;;;;;;;;;;;;;;18.84;58.01;101093.41;456851;114;921503;-77
2021/08/24 04:39:32;;;;;;;;;;;;;;;18.84;58.05;101096.17;456707;115;921447;-76
2021/08/24 04:40:35;;;;;;;;;;;;;;;18.85;58.04;101093.17;456294;115;921561;-76
2021/08/24 04:41:38;;;;;;;;;;;;;;;18.88;57.93;101091.80;455760;114;921436;-76
2021/08/24 04:42:42;;;;;;;;;;;;;;;18.91;57.93;101091.30;455604;115;921663;-77
2021/08/24 04:43:45;;;;;;;;;;;;;;;18.92;57.61;101093.78;454768;115;921516;-76
2021/08/24 04:44:49;;;;;;;;;;;;;;;18.94;57.34;101088.01;451500;115;921579;-76
2021/08/24 04:45:52;;;;;;;;;;;;;;;18.94;57.05;101088.01;452800;115;921531;-77
2021/08/24 04:46:55;;;;;;;;;;;;;;;18.96;56.77;101094.13;452474;115;921514;-77
2021/08/24 04:47:58;;;;;;;;;;;;;;;18.96;56.59;101097.73;443752;118;921494;-77
2021/08/24 04:49:02;;;;;;;;;;;;;;;18.98;56.48;101084.47;443700;118;921557;-76
2021/08/24 04:50:06;;;;;;;;;;;;;;;19.01;56.31;101085.89;450765;116;921508;-75
2021/08/24 04:51:09;;;;;;;;;;;;;;;19.04;56.28;101090.89;451527;115;921477;-77
2021/08/24 04:52:13;;;;;;;;;;;;;;;19.06;56.30;101099.77;451573;116;921633;-75
2021/08/24 04:53:17;;;;;;;;;;;;;;;19.07;56.43;101093.16;451463;115;923056;-77
2021/08/24 04:54:20;;;;;;;;;;;;;;;19.08;56.25;101094.80;442355;118;922699;-76
2021/08/24 04:55:24;;;;;;;;;;;;;;;19.07;56.25;101088.47;456072;114;923149;-76
2021/08/24 04:56:27;;;;;;;;;;;;;;;19.07;56.34;101095.92;458185;115;923143;-77
2021/08/24 04:57:31;;;;;;;;;;;;;;;19.07;56.37;101101.45;455164;115;923139;-75
2021/08/24 04:58:34;;;;;;;;;;;;;;;19.07;56.46;101101.45;453615;114;922788;-75
2021/08/24 04:59:37;;;;;;;;;;;;;;;19.07;56.52;101091.23;455916;114;921662;-75
2021/08/24 05:00:41;;;;;;;;;;;;;;;19.07;56.36;101093.16;455231;112;923196;-75
2021/08/24 05:01:45;;;;;;;;;;;;;;;19.07;56.22;101093.99;454578;115;922690;-75
2021/08/24 05:02:49;;;;;;;;;;;;;;;19.08;56.20;101098.40;454512;114;922654;-77
2021/08/24 05:03:52;;;;;;;;;;;;;;;19.08;56.30;101105.85;454088;114;922592;-76
2021/08/24 05:04:56;;;;;;;;;;;;;;;19.09;56.46;101099.23;454845;114;922679;-76
2021/08/24 05:05:59;;;;;;;;;;;;;;;19.08;55.98;101090.11;452856;114;922668;-76
2021/08/24 05:07:04;;;;;;;;;;;;;;;19.08;55.35;101098.40;452996;114;923684;-75
2021/08/24 05:20:04;;;;;;;;;;;;;;;19.25;54.13;101097.48;469011;112;922644;-75
2021/08/24 05:21:10;;;;;;;;;;;;;;;19.15;54.22;101096.28;460926;115;923095;-75
2021/08/24 05:22:20;;;;;;;;;;;;;;;19.31;54.38;101104.73;486110;107;923110;-76
2021/08/24 05:23:23;;;;;;;;;;;;;;;19.24;54.54;101102.17;475119;110;922639;-76
2021/08/24 05:24:26;;;;;;;;;;;;;;;19.27;54.71;101092.54;473939;111;922635;-75
2021/08/24 05:25:30;;;;;;;;;;;;;;;19.31;54.71;101104.73;471513;111;922684;-77
2021/08/24 05:26:33;;;;;;;;;;;;;;;19.34;54.48;101102.31;471483;109;922700;-76
2021/08/24 05:27:37;;;;;;;;;;;;;;;19.37;54.42;101101.77;470986;111;922715;-77
2021/08/24 05:28:40;;;;;;;;;;;;;;;19.39;54.40;101102.36;470915;111;922821;-76
2021/08/24 05:29:44;;;;;;;;;;;;;;;19.42;54.40;101104.59;471688;111;922618;-77
2021/08/24 05:30:47;;;;;;;;;;;;;;;19.46;54.56;101104.95;471025;111;922641;-77
2021/08/24 05:31:50;;;;;;;;;;;;;;;19.48;54.61;101105.52;471909;111;922776;-76
2021/08/24 05:32:54;;;;;;;;;;;;;;;19.50;54.61;101112.47;471371;111;922535;-75
2021/08/24 05:33:58;;;;;;;;;;;;;;;19.53;54.65;101111.93;471145;111;922679;-77
2021/08/24 05:35:01;;;;;;;;;;;;;;;19.57;54.64;101109.50;470201;111;922673;-77
2021/08/24 05:36:04;;;;;;;;;;;;;;;19.61;54.72;101109.80;469761;111;922617;-76
2021/08/24 05:37:08;;;;;;;;;;;;;;;19.64;54.73;101112.03;469809;111;922705;-74
2021/08/24 05:38:11;;;;;;;;;;;;;;;19.67;54.56;101105.98;471262;111;922640;-76
2021/08/24 05:39:14;;;;;;;;;;;;;;;19.69;54.53;101110.14;469987;111;923753;-76
2021/08/24 05:40:18;;;;;;;;;;;;;;;19.71;54.48;101112.66;469567;111;922713;-77
2021/08/24 05:41:22;;;;;;;;;;;;;;;19.72;54.59;101115.17;470886;111;922605;-74
2021/08/24 05:42:26;;;;;;;;;;;;;;;19.74;54.60;101118.48;470043;111;922563;-76
2021/08/24 05:43:29;;;;;;;;;;;;;;;19.75;54.81;101114.63;470177;111;923216;-75
2021/08/24 05:44:32;;;;;;;;;;;;;;;19.77;54.99;101117.98;470881;111;922658;-75